createdAt,value
2023-02-01T12:28:43.229Z,400
2023-02-01T12:33:48.663Z,882
2023-02-01T12:38:55.008Z,872
2023-02-01T12:44:01.308Z,864
2023-02-01T12:49:07.748Z,863
2023-02-01T12:54:14.064Z,867
2023-02-01T12:59:20.491Z,871
2023-02-01T13:04:27.222Z,883
2023-02-01T13:09:33.367Z,897
2023-02-01T13:14:40.117Z,920
2023-02-01T13:19:46.483Z,928
2023-02-01T13:24:53.024Z,940
2023-02-01T13:29:59.394Z,952
2023-02-01T13:35:05.983Z,961
2023-02-01T13:40:12.416Z,971
2023-02-01T13:45:18.933Z,980
2023-02-01T13:50:25.426Z,993
2023-02-01T13:55:31.944Z,999
2023-02-01T14:00:38.362Z,995
2023-02-01T14:05:44.919Z,999
2023-02-01T14:10:50.316Z,1035
2023-02-01T14:15:55.968Z,1002
2023-02-01T14:21:02.489Z,997
2023-02-01T14:26:09.034Z,981
2023-02-01T14:31:15.664Z,1000
2023-02-01T14:36:22.062Z,1025
2023-02-01T14:41:28.715Z,1030
2023-02-01T14:46:34.855Z,1055
2023-02-01T14:51:41.679Z,1095
2023-02-01T14:56:48.025Z,1119
2023-02-01T15:01:54.602Z,1102
2023-02-01T15:07:01.026Z,1041
2023-02-01T15:12:07.332Z,1048
2023-02-01T15:17:13.708Z,946
2023-02-01T15:22:19.066Z,900
2023-02-01T15:27:25.800Z,954
2023-02-01T15:32:32.158Z,973
2023-02-01T15:37:38.841Z,981
2023-02-01T15:42:45.176Z,976
2023-02-01T15:47:51.873Z,974
2023-02-01T15:52:58.242Z,970
2023-02-01T15:58:04.918Z,978
2023-02-01T16:03:11.262Z,983
2023-02-01T16:08:17.941Z,986
2023-02-01T16:13:24.306Z,989
2023-02-01T16:18:30.997Z,1016
2023-02-01T16:23:37.431Z,1049
2023-02-01T16:28:44.063Z,1083
2023-02-01T16:33:49.806Z,1112
